Time;durP1;ratioP1;P1;durP2;ratioP2;P2;SDS_P1;SDS_P2;PMS_P1;PMS_P2;Temp;Humidity;BMP_temperature;BMP_pressure;BME280_temperature;BME280_humidity;BME280_pressure;Samples;Min_cycle;Max_cycle;Signal;HPM_P1;HPM_P2
2024/01/06 00:02:15;;;;;;;21.65;13.43;;;6.30;99.90;;;;;;5009688;28;20041;-64
2024/01/06 00:04:41;;;;;;;19.98;11.85;;;6.30;99.90;;;;;;5007791;28;20044;-64
2024/01/06 00:07:06;;;;;;;18.15;12.80;;;6.20;99.90;;;;;;5010356;28;20040;-63
2024/01/06 00:09:32;;;;;;;21.80;13.57;;;6.10;99.90;;;;;;5007065;28;20051;-63
2024/01/06 00:11:58;;;;;;;21.30;13.27;;;5.90;99.90;;;;;;5005850;28;20041;-64
2024/01/06 00:14:24;;;;;;;31.08;15.45;;;5.90;99.90;;;;;;5012465;28;20033;-64
2024/01/06 00:16:49;;;;;;;21.58;13.63;;;5.90;99.90;;;;;;5010838;28;20045;-64
2024/01/06 00:19:17;;;;;;;19.15;13.35;;;6.00;99.90;;;;;;5013994;28;20853;-65
2024/01/06 00:21:43;;;;;;;16.95;11.48;;;6.00;99.90;;;;;;5009667;28;20040;-65
2024/01/06 00:24:08;;;;;;;17.38;11.05;;;6.00;99.90;;;;;;5009794;28;20053;-64
2024/01/06 00:26:34;;;;;;;18.80;11.40;;;5.90;99.90;;;;;;5007974;28;20540;-64
2024/01/06 00:28:59;;;;;;;36.53;13.23;;;5.90;99.90;;;;;;5005291;28;20087;-64
2024/01/06 00:31:25;;;;;;;23.10;11.45;;;5.90;99.90;;;;;;5007043;28;20052;-64
2024/01/06 00:33:51;;;;;;;20.17;12.25;;;5.90;99.90;;;;;;4999764;28;20107;-65
2024/01/06 00:36:16;;;;;;;14.60;10.07;;;5.80;99.90;;;;;;5005517;28;20681;-64
2024/01/06 00:38:42;;;;;;;17.08;8.88;;;5.80;99.90;;;;;;5004632;28;20037;-65
2024/01/06 00:41:07;;;;;;;13.60;9.20;;;5.70;99.90;;;;;;5013041;28;20046;-64
2024/01/06 00:43:33;;;;;;;14.07;9.32;;;5.70;99.90;;;;;;5010729;28;20545;-64
2024/01/06 00:45:59;;;;;;;15.98;9.40;;;5.70;99.90;;;;;;5013430;28;20431;-64
2024/01/06 00:48:24;;;;;;;16.63;11.20;;;5.70;99.90;;;;;;5014383;28;20502;-68
2024/01/06 00:50:50;;;;;;;18.38;10.93;;;5.70;99.90;;;;;;5009149;28;20037;-68
2024/01/06 00:53:15;;;;;;;20.27;12.63;;;5.70;99.90;;;;;;5011104;28;20036;-68
2024/01/06 00:55:41;;;;;;;19.77;12.60;;;5.70;99.90;;;;;;5007219;28;20026;-69
2024/01/06 00:58:08;;;;;;;21.40;11.68;;;5.80;99.90;;;;;;4998221;28;20033;-69
2024/01/06 01:00:34;;;;;;;19.88;11.95;;;5.80;99.90;;;;;;5014575;28;20516;-68
2024/01/06 01:02:59;;;;;;;28.50;15.20;;;5.70;99.90;;;;;;5011786;28;20046;-69
2024/01/06 01:05:25;;;;;;;29.42;15.27;;;5.70;99.90;;;;;;5009822;28;20060;-69
2024/01/06 01:07:50;;;;;;;25.63;13.32;;;5.80;99.90;;;;;;5010043;28;20140;-69
2024/01/06 01:10:16;;;;;;;15.75;9.45;;;5.90;99.90;;;;;;5008136;28;20770;-68
2024/01/06 01:12:42;;;;;;;13.75;7.78;;;5.90;99.90;;;;;;5012602;28;20437;-67
2024/01/06 01:15:08;;;;;;;11.15;8.38;;;5.80;99.90;;;;;;5014387;28;20044;-68
2024/01/06 01:17:33;;;;;;;12.80;7.80;;;5.70;99.90;;;;;;5012114;28;20039;-69
2024/01/06 01:19:59;;;;;;;14.15;8.77;;;5.70;99.90;;;;;;5005632;28;20505;-69
2024/01/06 01:22:24;;;;;;;17.98;10.85;;;5.60;99.90;;;;;;5011103;28;20127;-69
2024/01/06 01:24:50;;;;;;;17.35;10.80;;;5.50;99.90;;;;;;5005941;28;20573;-69
2024/01/06 01:27:15;;;;;;;22.30;12.13;;;5.50;99.90;;;;;;5007997;28;20033;-70
2024/01/06 01:29:41;;;;;;;21.45;13.10;;;5.40;99.90;;;;;;5015221;28;20033;-70
2024/01/06 01:32:07;;;;;;;19.23;11.05;;;5.40;99.90;;;;;;5013972;28;20707;-69
2024/01/06 01:34:32;;;;;;;19.13;12.18;;;5.40;99.90;;;;;;5007477;28;20052;-68
2024/01/06 01:37:00;;;;;;;29.17;13.75;;;5.50;99.90;;;;;;5008215;28;20030;-68
2024/01/06 01:39:25;;;;;;;25.17;13.70;;;5.50;99.90;;;;;;5009037;28;20469;-69
2024/01/06 01:41:51;;;;;;;19.55;12.75;;;5.50;99.90;;;;;;5013239;28;20057;-68
2024/01/06 01:44:16;;;;;;;12.65;8.52;;;5.60;99.90;;;;;;5012674;28;20120;-67
2024/01/06 01:46:42;;;;;;;15.13;8.88;;;5.50;99.90;;;;;;5009867;28;20032;-69
2024/01/06 01:49:08;;;;;;;15.25;9.27;;;5.50;99.90;;;;;;5010445;28;20038;-69
2024/01/06 01:51:34;;;;;;;16.05;9.65;;;5.50;99.90;;;;;;5010320;28;20044;-68
2024/01/06 01:54:05;;;;;;;20.65;11.73;;;5.50;99.90;;;;;;5010701;28;20053;-68
2024/01/06 01:56:34;;;;;;;23.35;11.50;;;5.50;99.90;;;;;;5009422;28;20045;-67
2024/01/06 01:59:10;;;;;;;13.77;8.15;;;5.50;99.90;;;;;;5006939;28;20129;-68
2024/01/06 02:01:36;;;;;;;15.05;9.48;;;5.40;99.90;;;;;;5011768;28;20279;-67
2024/01/06 02:04:02;;;;;;;19.45;11.77;;;5.40;99.90;;;;;;5008550;28;20044;-67
2024/01/06 02:06:28;;;;;;;24.33;14.02;;;5.50;99.90;;;;;;5016582;28;20030;-67
2024/01/06 02:08:54;;;;;;;27.60;15.50;;;5.50;99.90;;;;;;5013446;28;20065;-66
2024/01/06 02:11:19;;;;;;;12.50;8.73;;;5.60;99.90;;;;;;5010607;28;20548;-68
2024/01/06 02:13:45;;;;;;;12.48;7.93;;;5.60;99.90;;;;;;5015685;28;20045;-67
2024/01/06 02:16:10;;;;;;;12.23;8.65;;;5.50;99.90;;;;;;5011539;28;20040;-69
2024/01/06 02:18:36;;;;;;;14.73;8.82;;;5.50;99.90;;;;;;5016430;28;20029;-65
2024/01/06 02:21:02;;;;;;;20.48;11.40;;;5.50;99.90;;;;;;5013462;28;20501;-65
2024/01/06 02:23:29;;;;;;;18.20;11.95;;;5.60;99.90;;;;;;5014552;28;20063;-64
2024/01/06 02:25:55;;;;;;;12.88;8.15;;;5.70;99.90;;;;;;5014735;28;20040;-64
2024/01/06 02:28:21;;;;;;;11.70;6.72;;;5.70;99.90;;;;;;5013629;28;20033;-64
2024/01/06 02:30:47;;;;;;;12.82;7.10;;;5.60;99.90;;;;;;5015221;28;20033;-62
2024/01/06 02:33:13;;;;;;;10.85;7.03;;;5.60;99.90;;;;;;5006719;28;20045;-63
2024/01/06 02:35:40;;;;;;;9.18;6.68;;;5.60;99.90;;;;;;5010115;28;20571;-68
2024/01/06 02:38:06;;;;;;;11.32;7.05;;;5.60;99.90;;;;;;5009482;28;20071;-63
2024/01/06 02:40:32;;;;;;;11.02;7.22;;;5.50;99.90;;;;;;5008979;28;20557;-63
2024/01/06 02:42:58;;;;;;;10.48;6.70;;;5.60;99.90;;;;;;5008840;28;20230;-63
2024/01/06 02:45:24;;;;;;;8.93;6.57;;;5.60;99.90;;;;;;5008822;28;20032;-63
2024/01/06 02:47:49;;;;;;;13.15;7.38;;;5.60;99.90;;;;;;5007438;28;20040;-63
2024/01/06 02:50:15;;;;;;;13.50;7.50;;;5.70;99.90;;;;;;5005227;28;20387;-62
2024/01/06 02:52:40;;;;;;;11.18;7.97;;;5.70;99.90;;;;;;5009992;28;20042;-63
2024/01/06 02:55:06;;;;;;;13.23;7.82;;;5.70;99.90;;;;;;5008183;28;20776;-68
2024/01/06 02:57:32;;;;;;;11.00;7.13;;;5.80;99.90;;;;;;5010006;28;20068;-67
2024/01/06 02:59:58;;;;;;;13.45;8.07;;;5.80;99.90;;;;;;5007473;28;20767;-67
2024/01/06 03:02:24;;;;;;;14.65;7.75;;;5.80;99.90;;;;;;5013236;28;20061;-67
2024/01/06 03:04:50;;;;;;;10.57;7.03;;;5.80;99.90;;;;;;5009839;28;20037;-67
2024/01/06 03:07:15;;;;;;;11.20;7.60;;;5.80;99.90;;;;;;5011804;28;20042;-67
2024/01/06 03:09:41;;;;;;;11.55;6.97;;;5.70;99.90;;;;;;5017286;28;20129;-67
2024/01/06 03:12:07;;;;;;;12.18;7.28;;;5.70;99.90;;;;;;5012577;28;20029;-67
2024/01/06 03:14:36;;;;;;;9.88;6.95;;;5.70;99.90;;;;;;5015494;28;20199;-68
2024/01/06 03:17:02;;;;;;;12.35;7.25;;;5.70;99.90;;;;;;5010774;28;20057;-67
2024/01/06 03:19:29;;;;;;;10.35;6.70;;;5.70;99.90;;;;;;5009843;28;20068;-67
2024/01/06 03:21:54;;;;;;;13.15;7.85;;;5.70;99.90;;;;;;5007823;28;20895;-67
2024/01/06 03:24:21;;;;;;;16.23;8.68;;;5.80;99.90;;;;;;5005429;28;20052;-67
2024/01/06 03:26:47;;;;;;;9.60;7.22;;;5.80;99.90;;;;;;5006204;28;20490;-67
2024/01/06 03:29:13;;;;;;;13.35;7.57;;;5.90;99.90;;;;;;5007151;28;20026;-67
2024/01/06 03:31:42;;;;;;;16.70;9.65;;;5.90;99.90;;;;;;5007874;28;20127;-67
2024/01/06 03:34:08;;;;;;;12.15;8.38;;;5.90;99.90;;;;;;4988976;28;20099;-67
2024/01/06 03:36:34;;;;;;;22.63;13.60;;;5.90;99.90;;;;;;5008834;28;20486;-67
2024/01/06 03:38:59;;;;;;;21.00;12.38;;;6.00;99.90;;;;;;5004521;28;20022;-67
2024/01/06 03:41:25;;;;;;;12.18;8.38;;;6.00;99.90;;;;;;5005677;28;20515;-67
2024/01/06 03:43:51;;;;;;;11.10;7.90;;;6.00;99.90;;;;;;5007947;28;20413;-67
2024/01/06 03:46:17;;;;;;;16.02;8.73;;;5.90;99.90;;;;;;5004811;28;20171;-67
2024/01/06 03:48:42;;;;;;;12.70;6.97;;;5.90;99.90;;;;;;5009154;28;20807;-67
2024/01/06 03:51:09;;;;;;;10.75;7.30;;;5.90;99.90;;;;;;5006604;28;20064;-68
2024/01/06 03:53:35;;;;;;;13.30;7.90;;;5.90;99.90;;;;;;5005408;28;20310;-68
2024/01/06 03:56:00;;;;;;;13.27;8.07;;;6.00;99.90;;;;;;5002438;28;20092;-68
2024/01/06 03:58:26;;;;;;;11.65;7.93;;;6.00;99.90;;;;;;5009002;28;20037;-68
2024/01/06 04:00:52;;;;;;;10.70;8.10;;;6.10;99.90;;;;;;5010296;28;20588;-68
2024/01/06 04:03:17;;;;;;;13.43;8.07;;;6.10;99.90;;;;;;5004107;28;20038;-68
2024/01/06 04:05:43;;;;;;;16.90;9.65;;;6.10;99.90;;;;;;5008706;28;20545;-68
2024/01/06 04:08:08;;;;;;;13.70;9.32;;;6.10;99.90;;;;;;5004576;28;20406;-68
2024/01/06 04:10:34;;;;;;;18.70;9.75;;;6.10;99.90;;;;;;5003685;28;20782;-68
2024/01/06 04:12:59;;;;;;;15.75;9.18;;;6.20;99.90;;;;;;5007479;28;20079;-68
2024/01/06 04:15:25;;;;;;;16.52;8.98;;;6.20;99.90;;;;;;4995008;28;20034;-68
2024/01/06 04:17:52;;;;;;;17.48;10.82;;;6.10;99.90;;;;;;5004880;28;20444;-68
2024/01/06 04:20:18;;;;;;;17.70;11.82;;;6.20;99.90;;;;;;5005299;28;20030;-68
2024/01/06 04:22:44;;;;;;;15.20;10.27;;;6.30;99.90;;;;;;5003357;28;20099;-68
2024/01/06 04:25:10;;;;;;;13.25;9.48;;;6.40;99.90;;;;;;5004379;28;20509;-66
2024/01/06 04:27:35;;;;;;;17.13;10.30;;;6.40;99.90;;;;;;5000868;28;20050;-67
2024/01/06 04:30:01;;;;;;;14.32;9.05;;;6.40;99.90;;;;;;5007655;28;20119;-67
2024/01/06 04:32:27;;;;;;;12.98;9.50;;;6.40;99.90;;;;;;5004645;28;20029;-67
2024/01/06 04:34:53;;;;;;;13.82;9.60;;;6.40;99.90;;;;;;5006713;28;20026;-67
2024/01/06 04:37:18;;;;;;;12.90;8.93;;;6.40;99.90;;;;;;5005763;28;20219;-67
2024/01/06 04:39:44;;;;;;;14.73;10.10;;;6.50;99.90;;;;;;5004985;28;20113;-67
2024/01/06 04:42:09;;;;;;;18.42;9.77;;;6.50;99.90;;;;;;5010863;28;20125;-68
2024/01/06 04:44:35;;;;;;;16.45;9.73;;;6.50;99.90;;;;;;5010437;28;20045;-67
2024/01/06 04:47:01;;;;;;;15.02;9.60;;;6.60;99.90;;;;;;5007653;28;20124;-68
2024/01/06 04:49:26;;;;;;;13.20;9.63;;;6.70;99.90;;;;;;5011590;28;20772;-67
2024/01/06 04:51:52;;;;;;;15.25;9.23;;;6.70;99.90;;;;;;5014013;28;20038;-68
2024/01/06 04:54:17;;;;;;;14.32;8.73;;;6.80;99.90;;;;;;5004368;28;20037;-66
2024/01/06 04:56:43;;;;;;;12.95;8.30;;;6.90;99.90;;;;;;5011075;28;20048;-69
2024/01/06 04:59:08;;;;;;;13.85;8.63;;;7.00;99.90;;;;;;5013745;28;20617;-67
2024/01/06 05:01:34;;;;;;;13.00;7.80;;;7.00;99.90;;;;;;5011157;28;20045;-68
2024/01/06 05:03:59;;;;;;;12.52;7.85;;;7.10;99.90;;;;;;5010199;28;20034;-64
2024/01/06 05:06:25;;;;;;;11.27;7.45;;;7.10;99.90;;;;;;5009750;28;20041;-64
2024/01/06 05:08:51;;;;;;;10.30;7.43;;;7.10;99.90;;;;;;5011348;28;20029;-64
2024/01/06 05:11:16;;;;;;;10.82;7.30;;;7.20;99.90;;;;;;5011056;28;20420;-64
2024/01/06 05:13:42;;;;;;;11.10;7.50;;;7.10;99.90;;;;;;5013794;28;20045;-64
2024/01/06 05:16:08;;;;;;;10.93;6.60;;;7.10;99.90;;;;;;5012277;28;20073;-64
2024/01/06 05:18:34;;;;;;;8.30;6.68;;;7.10;99.90;;;;;;5011013;28;20564;-64
2024/01/06 05:21:01;;;;;;;10.73;7.25;;;7.10;99.90;;;;;;5012002;28;20475;-64
2024/01/06 05:23:26;;;;;;;11.00;7.30;;;7.10;99.90;;;;;;5015728;28;20450;-64
2024/01/06 05:25:52;;;;;;;11.85;7.40;;;7.20;99.90;;;;;;5010464;28;20124;-64
2024/01/06 05:28:18;;;;;;;12.48;7.85;;;7.10;99.90;;;;;;5009106;28;20080;-65
2024/01/06 05:30:43;;;;;;;12.43;8.05;;;7.10;99.90;;;;;;5012145;28;20029;-65
2024/01/06 05:33:15;;;;;;;10.60;7.65;;;6.90;99.90;;;;;;5015622;28;20207;-64
2024/01/06 05:35:41;;;;;;;14.30;8.57;;;6.80;99.90;;;;;;5009345;28;20033;-64
2024/01/06 05:38:06;;;;;;;11.63;7.70;;;6.80;99.90;;;;;;5013449;28;20551;-64
2024/01/06 05:40:32;;;;;;;14.07;8.65;;;6.90;99.90;;;;;;5017054;28;20037;-64
2024/01/06 05:42:58;;;;;;;12.73;8.48;;;6.90;99.90;;;;;;5015082;28;20440;-68
2024/01/06 05:45:23;;;;;;;12.80;7.93;;;6.80;99.90;;;;;;5013486;28;20044;-68
2024/01/06 05:47:49;;;;;;;11.75;8.05;;;6.80;99.90;;;;;;5015580;28;20029;-68
2024/01/06 05:50:18;;;;;;;9.18;6.60;;;6.80;99.90;;;;;;5012176;28;20066;-68
2024/01/06 05:52:44;;;;;;;10.40;7.10;;;6.80;99.90;;;;;;5017813;28;20033;-68
2024/01/06 05:55:10;;;;;;;10.13;6.97;;;6.90;99.90;;;;;;5009340;28;20037;-67
2024/01/06 05:57:35;;;;;;;12.52;7.78;;;6.90;99.90;;;;;;5018284;28;20038;-63
2024/01/06 06:00:01;;;;;;;13.02;8.15;;;6.90;99.90;;;;;;5014062;28;20040;-67
2024/01/06 06:02:27;;;;;;;11.75;7.85;;;6.90;99.90;;;;;;5014770;28;20075;-67
2024/01/06 06:04:52;;;;;;;15.65;9.02;;;6.90;99.90;;;;;;5012921;28;20029;-67
2024/01/06 06:07:19;;;;;;;15.80;10.75;;;6.90;99.90;;;;;;5011549;28;20052;-67
2024/01/06 06:09:47;;;;;;;12.77;8.38;;;7.00;99.90;;;;;;5012945;28;20018;-67
2024/01/06 06:12:13;;;;;;;14.23;9.10;;;6.90;99.90;;;;;;5014168;28;20033;-67
2024/01/06 06:14:39;;;;;;;13.73;8.48;;;6.70;99.90;;;;;;5017101;28;20045;-67
2024/01/06 06:17:05;;;;;;;17.63;10.70;;;6.70;99.90;;;;;;5011665;28;20041;-66
2024/01/06 06:19:31;;;;;;;17.35;9.57;;;6.80;99.90;;;;;;5013545;28;20021;-67
2024/01/06 06:21:56;;;;;;;18.98;10.43;;;6.80;99.90;;;;;;5015403;28;20042;-67
2024/01/06 06:24:22;;;;;;;19.83;10.77;;;6.80;99.90;;;;;;5016087;28;20056;-67
2024/01/06 06:26:48;;;;;;;19.20;12.15;;;6.80;99.90;;;;;;5011377;28;20116;-67
2024/01/06 06:29:14;;;;;;;29.23;14.98;;;6.90;99.90;;;;;;5013824;28;20308;-68
2024/01/06 06:31:39;;;;;;;27.25;14.45;;;6.90;99.90;;;;;;5012416;28;20122;-67
2024/01/06 06:34:05;;;;;;;31.92;16.45;;;7.00;99.90;;;;;;5013666;28;20044;-67
2024/01/06 06:36:30;;;;;;;42.65;19.00;;;7.10;99.90;;;;;;5015576;28;20038;-68
2024/01/06 06:38:58;;;;;;;38.88;19.83;;;7.10;99.90;;;;;;5015365;28;20045;-67
2024/01/06 06:41:24;;;;;;;43.38;19.15;;;7.10;99.90;;;;;;5010300;28;20042;-68
2024/01/06 06:43:50;;;;;;;31.85;16.20;;;7.10;99.90;;;;;;5014975;28;20064;-68
2024/01/06 06:46:16;;;;;;;22.85;12.60;;;7.20;99.90;;;;;;5016127;28;20441;-68
2024/01/06 06:48:42;;;;;;;24.98;13.18;;;7.30;99.90;;;;;;5013144;28;20033;-68
2024/01/06 06:51:07;;;;;;;19.45;11.40;;;7.20;99.90;;;;;;5011072;28;20680;-68
2024/01/06 06:53:33;;;;;;;18.35;10.10;;;7.30;99.90;;;;;;5018112;28;20041;-68
2024/01/06 06:55:58;;;;;;;16.90;10.00;;;7.20;99.90;;;;;;5013158;28;20108;-68
2024/01/06 06:58:24;;;;;;;20.65;10.32;;;7.20;99.90;;;;;;5010390;28;20621;-68
2024/01/06 07:00:49;;;;;;;17.08;8.88;;;7.20;99.90;;;;;;5008887;28;20034;-68
2024/01/06 07:03:15;;;;;;;14.80;8.10;;;7.20;99.90;;;;;;5013934;28;20511;-68
2024/01/06 07:05:41;;;;;;;14.02;7.43;;;7.30;99.90;;;;;;5012088;28;20041;-68
2024/01/06 07:08:07;;;;;;;11.60;7.32;;;7.30;99.90;;;;;;5014765;28;20029;-67
2024/01/06 07:10:32;;;;;;;12.88;8.32;;;7.30;99.90;;;;;;5012098;28;20038;-68
2024/01/06 07:12:58;;;;;;;11.57;7.28;;;7.20;99.90;;;;;;5014643;28;20171;-67
2024/01/06 07:15:23;;;;;;;10.02;7.63;;;7.20;99.90;;;;;;5013313;28;20044;-67
2024/01/06 07:17:49;;;;;;;17.73;11.23;;;7.30;99.90;;;;;;5014359;28;20751;-68
2024/01/06 07:20:15;;;;;;;13.75;9.27;;;7.20;99.90;;;;;;5013148;28;20033;-69
2024/01/06 07:22:41;;;;;;;11.75;7.75;;;7.20;99.90;;;;;;5011065;28;20136;-68
2024/01/06 07:25:07;;;;;;;10.57;7.72;;;7.20;99.90;;;;;;5011431;28;20489;-66
2024/01/06 07:27:33;;;;;;;9.30;6.97;;;7.20;99.90;;;;;;5011820;28;20029;-67
2024/01/06 07:29:58;;;;;;;18.67;12.55;;;7.20;99.90;;;;;;5013531;28;20069;-67
2024/01/06 07:32:24;;;;;;;14.65;9.10;;;7.10;99.90;;;;;;5013427;28;20663;-67
2024/01/06 07:34:50;;;;;;;12.85;9.35;;;7.10;99.90;;;;;;5016187;28;20072;-66
2024/01/06 07:37:16;;;;;;;9.77;7.82;;;7.10;99.90;;;;;;5015577;28;20033;-66
2024/01/06 07:39:41;;;;;;;14.73;9.60;;;7.10;99.90;;;;;;5010991;28;20636;-67
2024/01/06 07:42:07;;;;;;;10.75;8.60;;;7.10;99.90;;;;;;5012474;28;20528;-67
2024/01/06 07:44:33;;;;;;;13.30;9.48;;;7.00;99.90;;;;;;4998275;28;20033;-68
2024/01/06 07:46:59;;;;;;;12.32;8.43;;;7.00;99.90;;;;;;5014208;28;20521;-68
2024/01/06 07:49:24;;;;;;;11.85;7.78;;;7.10;99.90;;;;;;5012957;28;20108;-67
2024/01/06 07:51:50;;;;;;;12.15;7.82;;;7.10;99.90;;;;;;5015934;28;20032;-64
2024/01/06 07:54:16;;;;;;;11.27;8.18;;;7.10;99.90;;;;;;5010404;28;20494;-64
2024/01/06 07:56:43;;;;;;;12.00;8.75;;;7.10;99.90;;;;;;5014826;28;20518;-65
2024/01/06 07:59:10;;;;;;;10.57;8.27;;;7.10;99.90;;;;;;5012643;28;20031;-65
2024/01/06 08:01:35;;;;;;;10.57;8.30;;;7.20;99.90;;;;;;5011583;28;20037;-65
2024/01/06 08:04:01;;;;;;;11.07;8.98;;;7.10;99.90;;;;;;5011154;28;20075;-65
2024/01/06 08:06:27;;;;;;;15.13;10.30;;;7.10;99.90;;;;;;5014178;28;20021;-62
2024/01/06 08:08:52;;;;;;;12.82;9.07;;;7.10;99.90;;;;;;5013212;28;20033;-63
2024/01/06 08:11:18;;;;;;;13.60;9.25;;;7.10;99.90;;;;;;5008642;28;20117;-64
2024/01/06 08:13:43;;;;;;;14.07;9.68;;;7.10;99.90;;;;;;5013288;28;20022;-64
2024/01/06 08:16:09;;;;;;;15.25;10.13;;;7.10;99.90;;;;;;5014774;28;20060;-64
2024/01/06 08:18:35;;;;;;;15.93;10.35;;;7.10;99.90;;;;;;5014087;28;20118;-64
2024/01/06 08:21:00;;;;;;;13.68;9.13;;;7.10;99.90;;;;;;5007425;28;20101;-64
2024/01/06 08:23:26;;;;;;;13.18;8.57;;;7.10;99.90;;;;;;5014513;28;20508;-63
2024/01/06 08:25:52;;;;;;;14.80;10.07;;;7.10;99.90;;;;;;5011276;28;20030;-64
2024/01/06 08:28:18;;;;;;;15.43;11.38;;;7.20;99.90;;;;;;5012549;28;20018;-67
2024/01/06 08:30:44;;;;;;;43.33;29.92;;;7.20;99.90;;;;;;5007135;28;20029;-67
2024/01/06 08:33:10;;;;;;;28.00;21.75;;;7.20;99.90;;;;;;5009681;28;20034;-67
2024/01/06 08:35:40;;;;;;;21.15;18.90;;;7.30;99.90;;;;;;5004175;28;20032;-67
2024/01/06 08:38:09;;;;;;;18.63;14.30;;;7.30;99.90;;;;;;5013767;28;20033;-67
2024/01/06 08:40:35;;;;;;;20.70;13.38;;;7.30;99.90;;;;;;5008250;28;20037;-67
2024/01/06 08:43:01;;;;;;;21.77;13.32;;;7.20;99.90;;;;;;4991430;28;20256;-68
2024/01/06 08:45:27;;;;;;;15.98;11.80;;;7.30;99.90;;;;;;5014641;28;20089;-65
2024/01/06 08:47:53;;;;;;;19.13;13.13;;;7.30;99.90;;;;;;5014308;28;20025;-66
2024/01/06 08:50:18;;;;;;;22.45;15.60;;;7.30;99.90;;;;;;5009647;28;20033;-67
2024/01/06 08:52:44;;;;;;;20.67;16.20;;;7.30;99.90;;;;;;5013427;28;20026;-67
2024/01/06 08:55:09;;;;;;;18.42;11.95;;;7.30;99.90;;;;;;5007848;28;20034;-68
2024/01/06 08:57:35;;;;;;;19.10;13.27;;;7.30;99.90;;;;;;4994800;28;20099;-69
2024/01/06 09:00:01;;;;;;;19.55;14.93;;;7.30;99.90;;;;;;5015473;28;20051;-67
2024/01/06 09:02:26;;;;;;;19.20;13.80;;;7.40;99.90;;;;;;5010050;28;20033;-67
2024/01/06 09:04:52;;;;;;;21.30;14.25;;;7.40;99.90;;;;;;5011359;28;20407;-70
2024/01/06 09:07:17;;;;;;;20.02;13.10;;;7.40;99.90;;;;;;5007725;28;20064;-68
2024/01/06 09:09:44;;;;;;;17.58;13.73;;;7.50;99.90;;;;;;5009601;28;20554;-68
2024/01/06 09:12:10;;;;;;;17.52;11.73;;;7.50;99.90;;;;;;4999563;28;20038;-69
2024/01/06 09:14:35;;;;;;;22.15;17.55;;;7.50;99.90;;;;;;5014168;28;20225;-69
2024/01/06 09:17:01;;;;;;;16.88;11.75;;;7.50;99.90;;;;;;5017368;28;20530;-70
2024/01/06 09:19:28;;;;;;;23.70;18.70;;;7.50;99.90;;;;;;5015758;28;20025;-69
2024/01/06 09:21:54;;;;;;;25.55;18.30;;;7.60;99.90;;;;;;5004269;28;20489;-69
2024/01/06 09:24:20;;;;;;;18.42;12.90;;;7.60;99.90;;;;;;5003783;28;20403;-70
2024/01/06 09:26:46;;;;;;;33.22;23.50;;;7.60;99.90;;;;;;5011625;28;20206;-70
2024/01/06 09:29:12;;;;;;;22.25;16.42;;;7.60;99.90;;;;;;5009591;28;20384;-70
2024/01/06 09:31:37;;;;;;;35.40;27.67;;;7.60;99.90;;;;;;5014856;28;20033;-69
2024/01/06 09:34:03;;;;;;;21.42;17.02;;;7.60;99.90;;;;;;4988040;28;20030;-69
2024/01/06 09:36:31;;;;;;;37.20;28.55;;;7.60;99.90;;;;;;5015342;28;20493;-69
2024/01/06 09:38:56;;;;;;;44.60;35.15;;;7.60;99.90;;;;;;5013890;28;20025;-69
2024/01/06 09:41:24;;;;;;;39.17;29.83;;;7.60;99.90;;;;;;5007684;28;20367;-69
2024/01/06 09:43:50;;;;;;;30.25;23.88;;;7.60;99.90;;;;;;5010823;28;20061;-68
2024/01/06 09:46:27;;;;;;;22.27;17.80;;;7.60;99.90;;;;;;4991336;28;20065;-69
2024/01/06 09:48:54;;;;;;;21.15;15.25;;;7.50;99.90;;;;;;5016069;28;20028;-68
2024/01/06 09:51:21;;;;;;;19.65;14.98;;;7.60;99.90;;;;;;5017983;28;20103;-69
2024/01/06 09:53:56;;;;;;;23.13;17.02;;;7.60;99.90;;;;;;5013938;28;20525;-68
2024/01/06 09:56:25;;;;;;;36.67;26.20;;;7.60;99.90;;;;;;5006116;28;20047;-69
2024/01/06 09:58:51;;;;;;;47.38;35.90;;;7.60;99.90;;;;;;5005719;28;20033;-68
2024/01/06 10:01:18;;;;;;;28.60;22.10;;;7.60;99.90;;;;;;5009904;28;20036;-69
2024/01/06 10:03:47;;;;;;;37.40;27.33;;;7.60;99.90;;;;;;5013162;28;20060;-68
2024/01/06 10:06:16;;;;;;;34.90;28.98;;;7.60;99.90;;;;;;5014617;28;20086;-69
2024/01/06 10:08:52;;;;;;;24.38;21.33;;;7.60;99.90;;;;;;5012278;28;20481;-69
2024/01/06 10:11:21;;;;;;;39.35;32.67;;;7.60;99.90;;;;;;5012455;28;20079;-69
2024/01/06 10:13:50;;;;;;;35.33;26.92;;;7.60;99.90;;;;;;5007399;28;20559;-69
2024/01/06 10:16:17;;;;;;;25.63;19.35;;;7.60;99.90;;;;;;5010701;28;20022;-69
2024/01/06 10:18:44;;;;;;;40.72;30.58;;;7.60;99.90;;;;;;5010586;28;20056;-69
2024/01/06 10:21:09;;;;;;;36.00;27.75;;;7.60;99.90;;;;;;5010033;28;20026;-68
2024/01/06 10:23:36;;;;;;;38.05;30.92;;;7.70;99.90;;;;;;5004641;28;20065;-68
2024/01/06 10:26:02;;;;;;;26.10;20.55;;;7.70;99.90;;;;;;5012191;28;20030;-68
2024/01/06 10:28:28;;;;;;;39.70;30.50;;;7.70;99.90;;;;;;5008953;28;20074;-69
2024/01/06 10:30:55;;;;;;;22.27;17.90;;;7.60;99.90;;;;;;5012105;28;20025;-69
2024/01/06 10:33:22;;;;;;;37.00;24.90;;;7.70;99.90;;;;;;5015957;28;20029;-68
2024/01/06 10:35:48;;;;;;;168.88;130.85;;;7.70;99.90;;;;;;5008398;28;20087;-67
2024/01/06 10:38:15;;;;;;;65.22;51.15;;;7.70;99.90;;;;;;5014873;28;20041;-68
2024/01/06 10:40:59;;;;;;;41.15;18.95;;;7.80;99.90;;;;;;5012191;28;20435;-69
2024/01/06 10:43:29;;;;;;;34.55;26.15;;;7.80;99.90;;;;;;5018687;28;20060;-69
2024/01/06 10:45:59;;;;;;;67.78;39.75;;;7.80;99.90;;;;;;5016539;28;20026;-69
2024/01/06 10:48:26;;;;;;;142.82;111.20;;;7.80;99.90;;;;;;5010494;28;20025;-68
2024/01/06 10:50:54;;;;;;;40.28;31.00;;;7.80;99.90;;;;;;5016604;28;20025;-69
2024/01/06 10:53:22;;;;;;;38.38;27.50;;;7.80;99.90;;;;;;5019365;28;20083;-67
2024/01/06 10:55:51;;;;;;;26.95;20.02;;;7.80;99.90;;;;;;5018371;28;20525;-68
2024/01/06 10:58:17;;;;;;;33.47;24.40;;;7.80;99.90;;;;;;5016108;28;20014;-70
2024/01/06 11:00:43;;;;;;;43.08;30.20;;;7.80;99.90;;;;;;5014507;28;20401;-69
2024/01/06 11:03:09;;;;;;;120.30;98.60;;;7.80;99.90;;;;;;5012069;28;20049;-69
2024/01/06 11:05:36;;;;;;;46.80;35.80;;;7.80;99.90;;;;;;5016680;28;20059;-67
2024/01/06 11:08:06;;;;;;;24.52;19.00;;;7.80;99.90;;;;;;5015230;28;20030;-68
2024/01/06 11:10:32;;;;;;;21.10;16.33;;;7.90;99.90;;;;;;5013129;28;20033;-67
2024/01/06 11:13:13;;;;;;;23.05;16.58;;;7.90;99.90;;;;;;5010030;28;20076;-65
2024/01/06 11:15:52;;;;;;;19.43;15.20;;;7.90;99.90;;;;;;5014532;28;20044;-66
2024/01/06 11:18:34;;;;;;;18.23;14.40;;;7.90;99.90;;;;;;5015015;28;20029;-66
2024/01/06 11:21:26;;;;;;;22.67;17.90;;;8.00;99.90;;;;;;5016526;28;20049;-66
2024/01/06 11:24:24;;;;;;;22.73;18.30;;;8.00;99.90;;;;;;5012105;28;20132;-65
2024/01/06 11:26:52;;;;;;;19.70;14.63;;;7.90;99.90;;;;;;5015725;28;20033;-66
2024/01/06 11:29:19;;;;;;;35.85;21.73;;;7.90;99.90;;;;;;5015166;28;20036;-65
2024/01/06 11:32:24;;;;;;;58.97;42.38;;;7.90;99.90;;;;;;5014033;28;20017;-65
2024/01/06 11:35:14;;;;;;;56.40;45.67;;;8.00;99.90;;;;;;5015252;28;20041;-65
2024/01/06 11:37:40;;;;;;;31.05;24.08;;;8.00;99.90;;;;;;5016962;28;20021;-65
2024/01/06 11:40:32;;;;;;;24.27;21.23;;;8.00;99.90;;;;;;5018084;28;20282;-66
2024/01/06 11:43:06;;;;;;;21.42;16.30;;;8.00;99.90;;;;;;5003611;28;20414;-67
2024/01/06 11:45:33;;;;;;;20.05;15.60;;;8.00;99.90;;;;;;5014781;28;20041;-67
2024/01/06 11:48:07;;;;;;;22.27;16.33;;;8.00;99.90;;;;;;5016072;28;20114;-67
2024/01/06 11:50:38;;;;;;;19.00;15.18;;;8.00;99.90;;;;;;4996666;28;20091;-66
2024/01/06 11:53:04;;;;;;;21.67;16.33;;;7.90;99.90;;;;;;5013848;28;20079;-67
2024/01/06 11:55:34;;;;;;;26.17;22.58;;;7.90;99.90;;;;;;5014403;28;20288;-68
2024/01/06 11:58:04;;;;;;;21.17;15.93;;;7.90;99.90;;;;;;5017076;28;20143;-67
2024/01/06 12:00:29;;;;;;;21.40;17.42;;;7.90;99.90;;;;;;5014441;28;20068;-67
2024/01/06 12:02:59;;;;;;;21.98;17.23;;;7.90;99.90;;;;;;5017994;28;20044;-67
2024/01/06 12:05:26;;;;;;;21.42;19.08;;;7.90;99.90;;;;;;5011805;28;20116;-67
2024/01/06 12:08:06;;;;;;;20.48;17.60;;;8.00;99.90;;;;;;5015109;28;20486;-67
2024/01/06 12:10:32;;;;;;;20.58;16.13;;;8.00;99.90;;;;;;5014199;28;20041;-67
2024/01/06 12:13:03;;;;;;;18.15;14.93;;;8.00;99.90;;;;;;5014971;28;20395;-67
2024/01/06 12:15:31;;;;;;;22.20;17.27;;;8.00;99.90;;;;;;5015551;28;20061;-65
2024/01/06 12:17:57;;;;;;;17.85;13.85;;;8.00;99.90;;;;;;5004125;28;20084;-65
2024/01/06 12:20:24;;;;;;;20.70;15.98;;;8.00;99.90;;;;;;5014519;28;20116;-65
2024/01/06 12:22:53;;;;;;;22.27;17.50;;;8.00;99.90;;;;;;5016934;28;20110;-66
2024/01/06 12:25:21;;;;;;;19.70;15.60;;;7.90;99.90;;;;;;5014180;28;20148;-67
2024/01/06 12:27:48;;;;;;;19.48;15.57;;;8.00;99.90;;;;;;5015639;28;20082;-70
2024/01/06 12:30:16;;;;;;;17.00;14.05;;;8.00;99.90;;;;;;5017138;28;20122;-67
2024/01/06 12:32:43;;;;;;;21.50;16.20;;;8.00;99.90;;;;;;5013505;28;20116;-67
2024/01/06 12:35:10;;;;;;;21.17;15.90;;;8.00;99.90;;;;;;4999812;28;20032;-68
2024/01/06 12:37:36;;;;;;;26.50;18.02;;;7.90;99.90;;;;;;5019487;28;20048;-67
2024/01/06 12:40:02;;;;;;;19.05;15.27;;;7.90;99.90;;;;;;5012821;28;20029;-67